Time;durP1;ratioP1;P1;durP2;ratioP2;P2;SDS_P1;SDS_P2;PMS_P1;PMS_P2;Temp;Humidity;BMP_temperature;BMP_pressure;BME280_temperature;BME280_humidity;BME280_pressure;Samples;Min_cycle;Max_cycle;Signal;HPM_P1;HPM_P2
2022/11/15 00:00:47;;;;;;;;;;;7.80;99.90;;;;;;5092953;28;20404;-60
2022/11/15 00:03:17;;;;;;;;;;;7.80;99.90;;;;;;5108333;28;19967;-61
2022/11/15 00:05:44;;;;;;;;;;;7.80;99.90;;;;;;5091722;28;19924;-60
2022/11/15 00:08:10;;;;;;;;;;;7.70;99.90;;;;;;5092324;28;19925;-61
2022/11/15 00:10:35;;;;;;;;;;;7.80;99.90;;;;;;5097580;28;19927;-61
2022/11/15 00:13:08;;;;;;;;;;;8.20;99.90;;;;;;5077295;28;19928;-62
2022/11/15 00:15:37;;;;;;;;;;;7.70;99.90;;;;;;5092034;28;19947;-61
2022/11/15 00:18:03;;;;;;;;;;;7.70;99.90;;;;;;5091838;28;19974;-61
2022/11/15 00:20:29;;;;;;;;;;;7.60;99.90;;;;;;5073556;28;19997;-62
2022/11/15 00:22:55;;;;;;;;;;;7.60;99.90;;;;;;5094643;28;19924;-61
2022/11/15 00:25:20;;;;;;;;;;;7.50;99.90;;;;;;5069992;28;20002;-61
2022/11/15 00:27:46;;;;;;;;;;;7.50;99.90;;;;;;5071045;28;19933;-61
2022/11/15 00:30:12;;;;;;;;;;;7.40;99.90;;;;;;5053773;28;19935;-63
2022/11/15 00:32:38;;;;;;;;;;;7.40;99.90;;;;;;5071116;28;19924;-62
2022/11/15 00:35:03;;;;;;;;;;;7.30;99.90;;;;;;5072220;28;20408;-62
2022/11/15 00:37:29;;;;;;;;;;;7.30;99.90;;;;;;5104104;28;19977;-61
2022/11/15 00:39:54;;;;;;;;;;;7.20;99.90;;;;;;5071613;28;20017;-64
2022/11/15 00:42:20;;;;;;;;;;;7.20;99.90;;;;;;5071136;28;19929;-61
2022/11/15 00:44:45;;;;;;;;;;;7.10;99.90;;;;;;5071027;28;20605;-61
2022/11/15 00:47:11;;;;;;;;;;;7.10;99.90;;;;;;5071361;28;20575;-61
2022/11/15 00:49:37;;;;;;;;;;;7.10;99.90;;;;;;5069731;28;20028;-61
2022/11/15 00:52:02;;;;;;;;;;;7.10;99.90;;;;;;5068902;28;19935;-62
2022/11/15 00:54:28;;;;;;;;;;;7.20;99.90;;;;;;5103798;28;19946;-66
2022/11/15 00:56:53;;;;;;;;;;;7.20;99.90;;;;;;5070892;28;19932;-61
2022/11/15 00:59:19;;;;;;;;;;;7.10;99.90;;;;;;5073747;28;19934;-61
2022/11/15 01:01:45;;;;;;;;;;;7.20;99.90;;;;;;5069100;28;19932;-61
2022/11/15 01:04:10;;;;;;;;;;;7.20;99.90;;;;;;5052941;28;21539;-61
2022/11/15 01:06:36;;;;;;;;;;;7.20;99.90;;;;;;5070615;28;19932;-62
2022/11/15 01:09:02;;;;;;;;;;;7.20;99.90;;;;;;5069508;28;20007;-61
2022/11/15 01:11:27;;;;;;;;;;;7.30;99.90;;;;;;5076519;28;19935;-60
2022/11/15 01:13:54;;;;;;;;;;;7.30;99.90;;;;;;5070376;28;19934;-61
2022/11/15 01:16:19;;;;;;;;;;;7.30;99.90;;;;;;5070784;28;19928;-62
2022/11/15 01:18:45;;;;;;;;;;;7.30;99.90;;;;;;5070358;28;19977;-61
2022/11/15 01:21:12;;;;;;;;;;;7.30;99.90;;;;;;5070644;28;19939;-63
2022/11/15 01:23:38;;;;;;;;;;;7.30;99.90;;;;;;5074900;28;19928;-62
2022/11/15 01:26:05;;;;;;;;;;;7.30;99.90;;;;;;5090630;28;19924;-61
2022/11/15 01:28:31;;;;;;;;;;;7.30;99.90;;;;;;5090870;28;19970;-61
2022/11/15 01:30:58;;;;;;;;;;;7.20;99.90;;;;;;5072472;28;19947;-61
2022/11/15 01:33:23;;;;;;;;;;;7.20;99.90;;;;;;5090420;28;19960;-61
2022/11/15 01:35:49;;;;;;;;;;;7.20;99.90;;;;;;5090175;28;19959;-62
2022/11/15 01:38:14;;;;;;;;;;;7.20;99.90;;;;;;5076111;28;19932;-61
2022/11/15 01:40:41;;;;;;;;;;;7.30;99.90;;;;;;5090693;28;19924;-62
2022/11/15 01:43:26;;;;;;;;;;;7.20;99.90;;;;;;5072628;28;19932;-64
2022/11/15 01:45:58;;;;;;;;;;;7.30;99.90;;;;;;5057829;28;19925;-62
2022/11/15 01:48:26;;;;;;;;;;;7.30;99.90;;;;;;5090631;28;19928;-63
2022/11/15 01:50:51;;;;;;;;;;;7.30;99.90;;;;;;5091111;28;20347;-63
2022/11/15 01:53:19;;;;;;;;;;;7.40;99.90;;;;;;5090468;28;19924;-60
2022/11/15 01:55:44;;;;;;;;;;;7.40;99.90;;;;;;5089544;28;19928;-61
2022/11/15 01:58:10;;;;;;;;;;;7.40;99.90;;;;;;5090159;28;19969;-61
2022/11/15 02:00:35;;;;;;;;;;;7.40;99.90;;;;;;5091273;28;19928;-60
2022/11/15 02:03:02;;;;;;;;;;;7.40;99.90;;;;;;5094059;28;20447;-60
2022/11/15 02:05:29;;;;;;;;;;;7.40;99.90;;;;;;5079940;28;19950;-60
2022/11/15 02:07:54;;;;;;;;;;;7.40;99.90;;;;;;5093649;28;19935;-61
2022/11/15 02:10:21;;;;;;;;;;;7.50;99.90;;;;;;5094581;28;19928;-61
2022/11/15 02:12:47;;;;;;;;;;;7.40;99.90;;;;;;5094079;28;19981;-61
2022/11/15 02:15:13;;;;;;;;;;;7.40;99.90;;;;;;5094206;28;20010;-60
2022/11/15 02:17:38;;;;;;;;;;;7.40;99.90;;;;;;5107306;28;19928;-61
2022/11/15 02:20:20;;;;;;;;;;;7.40;99.90;;;;;;5092875;28;19928;-61
2022/11/15 02:23:04;;;;;;;;;;;7.40;99.90;;;;;;5109299;28;19928;-61
2022/11/15 02:25:31;;;;;;;;;;;7.40;99.90;;;;;;5093937;28;19982;-61
2022/11/15 02:28:15;;;;;;;;;;;8.00;99.90;;;;;;5074999;28;20389;-62
2022/11/15 02:30:42;;;;;;;;;;;7.40;99.90;;;;;;5101650;28;19967;-61
2022/11/15 02:33:11;;;;;;;;;;;7.40;99.90;;;;;;5075775;28;19924;-61
2022/11/15 02:35:39;;;;;;;;;;;7.40;99.90;;;;;;5094178;28;20291;-61
2022/11/15 02:38:13;;;;;;;;;;;7.40;99.90;;;;;;5093368;28;20014;-62
2022/11/15 02:40:45;;;;;;;;;;;7.40;99.90;;;;;;5106663;28;20469;-63
2022/11/15 02:46:03;;;;;;;;;;;7.40;99.90;;;;;;5093563;28;19939;-60
2022/11/15 02:48:30;;;;;;;;;;;7.40;99.90;;;;;;5093294;28;19924;-61
2022/11/15 02:50:56;;;;;;;;;;;7.40;99.90;;;;;;5092625;28;20322;-61
2022/11/15 02:53:25;;;;;;;;;;;7.40;99.90;;;;;;5095521;28;19925;-61
2022/11/15 02:55:51;;;;;;;;;;;7.40;99.90;;;;;;5092762;28;19928;-60
2022/11/15 02:58:46;;;;;;;;;;;7.40;99.90;;;;;;5075444;28;19924;-60
2022/11/15 03:01:41;;;;;;;;;;;7.40;99.90;;;;;;5076399;28;19928;-61
2022/11/15 03:04:25;;;;;;;;;;;7.40;99.90;;;;;;5035112;28;20111;-61
2022/11/15 03:06:59;;;;;;;;;;;7.40;99.90;;;;;;5092872;28;19934;-62
2022/11/15 03:09:32;;;;;;;;;;;7.40;99.90;;;;;;5093129;28;20010;-60
2022/11/15 03:12:00;;;;;;;;;;;7.40;99.90;;;;;;5074445;28;19928;-61
2022/11/15 03:14:32;;;;;;;;;;;7.40;99.90;;;;;;5109407;28;19932;-62
2022/11/15 03:17:16;;;;;;;;;;;7.40;99.90;;;;;;5074870;28;19967;-61
2022/11/15 03:20:00;;;;;;;;;;;7.40;99.90;;;;;;5074396;28;19935;-61
2022/11/15 03:22:28;;;;;;;;;;;7.40;99.90;;;;;;5083302;28;20022;-62
2022/11/15 03:24:55;;;;;;;;;;;7.50;99.90;;;;;;5094045;28;19924;-62
2022/11/15 03:27:23;;;;;;;;;;;7.50;99.90;;;;;;5081936;28;19928;-62
2022/11/15 03:29:51;;;;;;;;;;;7.50;99.90;;;;;;5078048;28;19959;-61
2022/11/15 03:32:20;;;;;;;;;;;7.50;99.90;;;;;;5092920;28;19943;-61
2022/11/15 03:34:57;;;;;;;;;;;7.50;99.90;;;;;;5092737;28;20325;-61
2022/11/15 03:37:29;;;;;;;;;;;7.50;99.90;;;;;;5093041;28;19935;-61
2022/11/15 03:39:54;;;;;;;;;;;7.50;99.90;;;;;;5058876;28;19935;-63
2022/11/15 03:42:23;;;;;;;;;;;7.50;99.90;;;;;;5092742;28;19924;-61
2022/11/15 03:44:56;;;;;;;;;;;7.50;99.90;;;;;;5058106;28;19965;-61
2022/11/15 03:47:21;;;;;;;;;;;7.60;99.90;;;;;;5079267;28;19932;-62
2022/11/15 03:49:58;;;;;;;;;;;7.60;99.90;;;;;;5074214;28;19924;-61
2022/11/15 03:52:23;;;;;;;;;;;7.60;99.90;;;;;;5085908;28;19924;-61
2022/11/15 03:54:53;;;;;;;;;;;7.60;99.90;;;;;;5105150;28;19928;-61
2022/11/15 03:57:19;;;;;;;;;;;7.60;99.90;;;;;;5092360;28;20360;-61
2022/11/15 03:59:44;;;;;;;;;;;7.60;99.90;;;;;;5074538;28;19931;-62
2022/11/15 04:02:10;;;;;;;;;;;7.60;99.90;;;;;;5091597;28;19924;-61
2022/11/15 04:04:36;;;;;;;;;;;7.60;99.90;;;;;;5079972;28;20064;-61
2022/11/15 04:07:01;;;;;;;;;;;7.60;99.90;;;;;;5073546;28;20567;-61
2022/11/15 04:09:27;;;;;;;;;;;7.60;99.90;;;;;;5092015;28;19928;-61
2022/11/15 04:11:52;;;;;;;;;;;7.60;99.90;;;;;;5091864;28;19928;-63
2022/11/15 04:14:18;;;;;;;;;;;7.60;99.90;;;;;;5093564;28;20281;-61
2022/11/15 04:16:43;;;;;;;;;;;7.60;99.90;;;;;;5092461;28;19931;-61
2022/11/15 04:24:37;;;;;;;;;;;7.70;99.90;;;;;;5091025;28;19935;-62
2022/11/15 04:27:03;;;;;;;;;;;7.70;99.90;;;;;;5033067;28;20314;-61
2022/11/15 04:29:35;;;;;;;;;;;7.70;99.90;;;;;;5067941;28;19924;-61
2022/11/15 04:32:01;;;;;;;;;;;7.70;99.90;;;;;;5071405;28;19977;-66
2022/11/15 04:34:27;;;;;;;;;;;7.70;99.90;;;;;;5054752;28;19971;-61
2022/11/15 04:39:37;;;;;;;;;;;7.80;99.90;;;;;;5055857;28;20439;-61
2022/11/15 04:42:02;;;;;;;;;;;7.80;99.90;;;;;;5071086;28;19968;-66
2022/11/15 04:44:28;;;;;;;;;;;7.80;99.90;;;;;;5070933;28;19934;-62
2022/11/15 04:46:53;;;;;;;;;;;7.80;99.90;;;;;;5070663;28;19959;-61
2022/11/15 04:49:19;;;;;;;;;;;7.80;99.90;;;;;;5069694;28;19932;-61
2022/11/15 04:51:45;;;;;;;;;;;7.80;99.90;;;;;;5069732;28;19925;-61
2022/11/15 04:54:10;;;;;;;;;;;7.80;99.90;;;;;;5070474;28;19924;-61
2022/11/15 04:56:36;;;;;;;;;;;7.80;99.90;;;;;;5069733;28;19964;-61
2022/11/15 04:59:01;;;;;;;;;;;7.80;99.90;;;;;;5057392;28;19935;-61
2022/11/15 05:01:27;;;;;;;;;;;7.90;99.90;;;;;;5071260;28;19928;-61
2022/11/15 05:06:37;;;;;;;;;;;7.90;99.90;;;;;;5055854;28;19924;-63
2022/11/15 05:09:03;;;;;;;;;;;7.90;99.90;;;;;;5069469;28;19925;-62
2022/11/15 05:11:31;;;;;;;;;;;7.90;99.90;;;;;;5077445;28;19924;-61
2022/11/15 05:13:57;;;;;;;;;;;7.90;99.90;;;;;;5071062;28;20346;-61
2022/11/15 05:16:22;;;;;;;;;;;7.90;99.90;;;;;;5070171;28;19975;-61
2022/11/15 05:18:50;;;;;;;;;;;7.90;99.90;;;;;;5065917;28;19970;-61
2022/11/15 05:21:17;;;;;;;;;;;7.90;99.90;;;;;;5069694;28;19929;-62
2022/11/15 05:23:42;;;;;;;;;;;7.90;99.90;;;;;;5078020;28;19924;-61
2022/11/15 05:26:09;;;;;;;;;;;8.00;99.90;;;;;;5080873;28;19931;-66
2022/11/15 05:28:36;;;;;;;;;;;8.00;99.90;;;;;;5090724;28;19928;-62
2022/11/15 05:31:02;;;;;;;;;;;8.00;99.90;;;;;;5090474;28;19924;-61
2022/11/15 05:33:28;;;;;;;;;;;8.00;99.90;;;;;;5090440;28;19924;-61
2022/11/15 05:36:14;;;;;;;;;;;8.10;99.90;;;;;;5089638;28;20027;-61
2022/11/15 05:38:39;;;;;;;;;;;8.10;99.90;;;;;;5063040;28;19928;-61
2022/11/15 05:41:05;;;;;;;;;;;8.10;99.90;;;;;;5090313;28;19981;-61
2022/11/15 05:43:32;;;;;;;;;;;8.10;99.90;;;;;;5089807;28;20683;-61
2022/11/15 05:45:58;;;;;;;;;;;8.10;99.90;;;;;;5072208;28;20027;-61
2022/11/15 05:48:24;;;;;;;;;;;8.20;99.90;;;;;;5091363;28;19978;-61
2022/11/15 05:50:49;;;;;;;;;;;8.20;99.90;;;;;;5090210;28;19927;-61
2022/11/15 05:53:17;;;;;;;;;;;8.10;99.90;;;;;;5055180;28;19989;-60
2022/11/15 05:55:43;;;;;;;;;;;8.20;99.90;;;;;;5090541;28;20293;-62
2022/11/15 05:58:09;;;;;;;;;;;8.20;99.90;;;;;;5072084;28;20015;-60
2022/11/15 06:00:34;;;;;;;;;;;8.20;99.90;;;;;;5103797;28;20301;-60
2022/11/15 06:03:00;;;;;;;;;;;8.30;99.90;;;;;;5076923;28;19928;-62
2022/11/15 06:05:25;;;;;;;;;;;8.30;99.90;;;;;;5087392;28;20338;-61
2022/11/15 06:07:51;;;;;;;;;;;8.20;99.90;;;;;;5083524;28;19931;-61
2022/11/15 06:10:16;;;;;;;;;;;8.30;99.90;;;;;;5089194;28;19932;-61
2022/11/15 06:12:42;;;;;;;;;;;8.30;99.90;;;;;;5090576;28;19924;-61
2022/11/15 06:15:08;;;;;;;;;;;8.40;99.90;;;;;;5072245;28;19982;-61
2022/11/15 06:17:33;;;;;;;;;;;8.40;99.90;;;;;;5089241;28;19935;-61
2022/11/15 06:19:59;;;;;;;;;;;8.50;99.90;;;;;;5088569;28;19928;-61
2022/11/15 06:22:24;;;;;;;;;;;8.50;99.90;;;;;;5090633;28;20014;-62
2022/11/15 06:24:50;;;;;;;;;;;8.50;99.90;;;;;;5090362;28;19928;-61
2022/11/15 06:27:16;;;;;;;;;;;8.60;99.90;;;;;;5067974;28;20312;-66
2022/11/15 06:29:41;;;;;;;;;;;8.90;99.90;;;;;;5069409;28;19931;-61
2022/11/15 06:32:07;;;;;;;;;;;8.60;99.90;;;;;;5069776;28;20389;-62
2022/11/15 06:34:32;;;;;;;;;;;8.60;99.90;;;;;;5076019;28;19928;-61
2022/11/15 06:36:58;;;;;;;;;;;8.70;99.90;;;;;;5069907;28;19994;-61
2022/11/15 06:39:24;;;;;;;;;;;8.70;99.90;;;;;;5067417;28;19973;-63
2022/11/15 06:41:49;;;;;;;;;;;8.70;99.90;;;;;;5066809;28;19925;-61
2022/11/15 06:44:16;;;;;;;;;;;8.70;99.90;;;;;;5101003;28;19924;-61
2022/11/15 06:46:41;;;;;;;;;;;8.80;99.90;;;;;;5070873;28;19982;-60
2022/11/15 06:49:07;;;;;;;;;;;8.80;99.90;;;;;;5067739;28;19929;-62
2022/11/15 06:51:32;;;;;;;;;;;8.90;99.90;;;;;;5086677;28;19925;-62
2022/11/15 06:53:58;;;;;;;;;;;8.90;99.90;;;;;;5072340;28;19934;-62
2022/11/15 06:56:24;;;;;;;;;;;8.90;99.90;;;;;;5071709;28;19947;-64
2022/11/15 06:58:49;;;;;;;;;;;9.00;99.90;;;;;;5067970;28;19935;-61
2022/11/15 07:01:15;;;;;;;;;;;9.00;99.90;;;;;;5076973;28;19935;-62
2022/11/15 07:03:41;;;;;;;;;;;9.00;99.90;;;;;;5088556;28;20322;-62
2022/11/15 07:06:08;;;;;;;;;;;9.10;99.90;;;;;;5070585;28;19932;-62
2022/11/15 07:08:33;;;;;;;;;;;9.10;99.90;;;;;;5066988;28;20226;-62
2022/11/15 07:11:01;;;;;;;;;;;9.20;99.90;;;;;;5071876;28;19928;-62
2022/11/15 07:13:27;;;;;;;;;;;9.20;99.90;;;;;;5071640;28;19983;-64
2022/11/15 07:15:53;;;;;;;;;;;9.20;99.90;;;;;;5072820;28;19925;-63
2022/11/15 07:18:19;;;;;;;;;;;9.30;99.90;;;;;;5072935;28;19931;-62
2022/11/15 07:20:44;;;;;;;;;;;9.30;99.90;;;;;;5071991;28;19978;-62
2022/11/15 07:23:10;;;;;;;;;;;9.30;99.90;;;;;;5073641;28;20099;-62
2022/11/15 07:25:35;;;;;;;;;;;9.30;99.90;;;;;;5075042;28;19928;-61
2022/11/15 07:28:02;;;;;;;;;;;9.40;99.90;;;;;;5092917;28;19950;-61
2022/11/15 07:30:27;;;;;;;;;;;9.40;99.90;;;;;;5090525;28;19960;-67
2022/11/15 07:32:56;;;;;;;;;;;9.50;99.90;;;;;;5092414;28;19927;-62
2022/11/15 07:35:22;;;;;;;;;;;9.40;99.90;;;;;;5070670;28;20270;-62
2022/11/15 07:37:54;;;;;;;;;;;9.50;99.90;;;;;;5057461;28;20136;-64
2022/11/15 07:40:20;;;;;;;;;;;9.50;99.90;;;;;;5092394;28;19972;-61
2022/11/15 07:42:55;;;;;;;;;;;9.60;99.90;;;;;;5091191;28;20280;-60
2022/11/15 07:45:22;;;;;;;;;;;9.50;99.90;;;;;;5096763;28;19928;-61
2022/11/15 07:47:48;;;;;;;;;;;9.50;99.90;;;;;;5092185;28;20022;-61
2022/11/15 07:50:14;;;;;;;;;;;9.60;99.90;;;;;;5090310;28;19928;-62
2022/11/15 07:52:40;;;;;;;;;;;9.60;99.90;;;;;;5091620;28;19935;-62
2022/11/15 07:55:06;;;;;;;;;;;9.70;99.90;;;;;;5091541;28;19977;-62
2022/11/15 07:57:31;;;;;;;;;;;9.70;99.90;;;;;;5090941;28;19924;-67
2022/11/15 07:59:57;;;;;;;;;;;9.70;99.90;;;;;;5071187;28;19930;-62
2022/11/15 08:02:22;;;;;;;;;;;9.70;99.90;;;;;;5073623;28;20446;-62
2022/11/15 08:04:48;;;;;;;;;;;9.80;99.90;;;;;;5097510;28;19928;-61
2022/11/15 08:07:13;;;;;;;;;;;9.70;99.90;;;;;;5073786;28;19928;-62
2022/11/15 08:09:39;;;;;;;;;;;9.70;99.90;;;;;;5073802;28;19985;-61
2022/11/15 08:12:05;;;;;;;;;;;9.80;99.90;;;;;;5073505;28;19924;-62
2022/11/15 08:14:31;;;;;;;;;;;9.80;99.90;;;;;;5096602;28;19923;-62
2022/11/15 08:16:56;;;;;;;;;;;9.90;99.90;;;;;;5081337;28;19963;-61
2022/11/15 08:19:22;;;;;;;;;;;9.90;99.90;;;;;;5091900;28;20027;-62
2022/11/15 08:21:47;;;;;;;;;;;10.00;99.90;;;;;;5091372;28;19989;-61
2022/11/15 08:24:13;;;;;;;;;;;9.90;99.90;;;;;;5073119;28;19928;-61
2022/11/15 08:26:39;;;;;;;;;;;10.00;99.90;;;;;;5090021;28;19928;-62
2022/11/15 08:29:05;;;;;;;;;;;10.00;99.90;;;;;;5073236;28;19970;-63
2022/11/15 08:31:31;;;;;;;;;;;10.00;99.90;;;;;;5091272;28;19928;-61
2022/11/15 08:33:56;;;;;;;;;;;10.00;99.90;;;;;;5071290;28;20147;-61
2022/11/15 08:36:22;;;;;;;;;;;10.10;99.90;;;;;;5092126;28;19924;-61
2022/11/15 08:38:47;;;;;;;;;;;10.20;99.90;;;;;;5086671;28;19924;-63
2022/11/15 08:41:18;;;;;;;;;;;10.20;99.90;;;;;;5071539;28;20385;-61
2022/11/15 08:43:44;;;;;;;;;;;10.20;99.90;;;;;;5090649;28;19923;-63
2022/11/15 08:46:13;;;;;;;;;;;10.20;99.90;;;;;;5092319;28;20258;-63
2022/11/15 08:48:38;;;;;;;;;;;10.30;99.90;;;;;;5069906;28;19974;-68
2022/11/15 08:51:04;;;;;;;;;;;10.30;99.90;;;;;;5087802;28;19928;-62
2022/11/15 08:53:30;;;;;;;;;;;10.40;99.90;;;;;;5084732;28;19935;-62
2022/11/15 08:55:55;;;;;;;;;;;10.40;99.90;;;;;;5085781;28;19932;-63
2022/11/15 08:58:21;;;;;;;;;;;10.40;99.90;;;;;;5070925;28;20046;-61
2022/11/15 09:00:46;;;;;;;;;;;10.40;99.90;;;;;;5086702;28;19935;-62
2022/11/15 09:03:12;;;;;;;;;;;10.40;99.90;;;;;;5089327;28;19931;-61
2022/11/15 09:05:37;;;;;;;;;;;10.50;99.90;;;;;;5089835;28;19924;-61
2022/11/15 09:08:04;;;;;;;;;;;10.60;99.90;;;;;;5087949;28;20385;-61
2022/11/15 09:10:29;;;;;;;;;;;10.60;99.90;;;;;;5062197;28;20327;-60
2022/11/15 09:12:56;;;;;;;;;;;10.70;99.90;;;;;;5071415;28;19986;-63
2022/11/15 09:15:22;;;;;;;;;;;10.80;99.90;;;;;;5087624;28;19932;-62
2022/11/15 09:17:47;;;;;;;;;;;10.80;99.90;;;;;;5082215;28;19982;-60
2022/11/15 09:20:13;;;;;;;;;;;10.80;99.90;;;;;;5086184;28;20024;-61
2022/11/15 09:22:39;;;;;;;;;;;10.90;99.90;;;;;;5056759;28;19928;-61
2022/11/15 09:25:05;;;;;;;;;;;10.90;99.90;;;;;;5066541;28;19931;-61
2022/11/15 09:27:30;;;;;;;;;;;10.90;99.90;;;;;;5088174;28;20358;-63
2022/11/15 09:29:56;;;;;;;;;;;10.90;99.90;;;;;;5073540;28;20783;-63
2022/11/15 09:32:23;;;;;;;;;;;11.00;99.90;;;;;;5090597;28;19931;-62
2022/11/15 09:34:51;;;;;;;;;;;11.00;99.90;;;;;;5090057;28;19988;-62
2022/11/15 09:37:17;;;;;;;;;;;11.10;99.90;;;;;;5078980;28;19975;-62
2022/11/15 09:39:42;;;;;;;;;;;11.00;99.90;;;;;;5095573;28;19988;-65
2022/11/15 09:42:20;;;;;;;;;;;11.00;99.90;;;;;;5089876;28;20288;-62
2022/11/15 09:44:46;;;;;;;;;;;11.10;99.90;;;;;;5089989;28;19931;-67
2022/11/15 09:47:14;;;;;;;;;;;11.20;99.90;;;;;;5090232;28;20395;-62
2022/11/15 09:49:40;;;;;;;;;;;11.20;99.90;;;;;;5100552;28;19924;-62
2022/11/15 09:52:07;;;;;;;;;;;11.10;99.90;;;;;;5090064;28;19924;-62
2022/11/15 09:54:34;;;;;;;;;;;11.20;99.90;;;;;;5089402;28;19931;-64
2022/11/15 09:57:06;;;;;;;;;;;11.20;99.90;;;;;;5088820;28;19932;-64
2022/11/15 09:59:58;;;;;;;;;;;11.20;99.90;;;;;;5090248;28;19934;-66
2022/11/15 10:02:42;;;;;;;;;;;11.20;99.90;;;;;;5064248;28;19951;-62
2022/11/15 10:05:11;;;;;;;;;;;11.20;99.90;;;;;;5088714;28;20516;-63
2022/11/15 10:07:55;;;;;;;;;;;11.30;99.90;;;;;;5090146;28;20327;-63
2022/11/15 10:10:27;;;;;;;;;;;11.30;99.90;;;;;;5090821;28;19934;-63
2022/11/15 10:12:53;;;;;;;;;;;11.30;99.90;;;;;;5089107;28;19935;-63
2022/11/15 10:15:22;;;;;;;;;;;11.30;99.90;;;;;;5089584;28;19924;-64
2022/11/15 10:18:00;;;;;;;;;;;11.30;99.90;;;;;;5089693;28;20301;-62
2022/11/15 10:20:27;;;;;;;;;;;11.30;99.90;;;;;;5087894;28;19931;-63
2022/11/15 10:22:56;;;;;;;;;;;11.40;99.90;;;;;;5093141;28;19931;-63
2022/11/15 10:25:23;;;;;;;;;;;11.30;99.90;;;;;;5093300;28;19928;-63
2022/11/15 10:27:54;;;;;;;;;;;11.40;99.90;;;;;;5094085;28;19928;-63
2022/11/15 10:30:19;;;;;;;;;;;11.40;99.90;;;;;;5091877;28;19932;-64
2022/11/15 10:32:46;;;;;;;;;;;11.40;99.90;;;;;;5096630;28;20326;-63
2022/11/15 10:35:20;;;;;;;;;;;11.40;99.90;;;;;;5090984;28;19947;-64
2022/11/15 10:37:45;;;;;;;;;;;11.50;99.90;;;;;;5058711;28;19928;-62
2022/11/15 10:40:16;;;;;;;;;;;11.50;99.90;;;;;;5092569;28;20689;-62
2022/11/15 10:42:41;;;;;;;;;;;11.50;99.90;;;;;;5094286;28;19977;-62
2022/11/15 10:45:27;;;;;;;;;;;11.60;99.90;;;;;;5071677;28;20536;-62
2022/11/15 10:47:53;;;;;;;;;;;11.50;99.90;;;;;;5092467;28;19932;-68
2022/11/15 10:50:30;;;;;;;;;;;11.60;99.90;;;;;;5089925;28;19928;-63
2022/11/15 10:52:56;;;;;;;;;;;11.60;99.90;;;;;;5091253;28;19924;-68
2022/11/15 10:55:24;;;;;;;;;;;11.60;99.90;;;;;;5073672;28;19932;-63
2022/11/15 10:57:51;;;;;;;;;;;11.60;99.90;;;;;;5093187;28;19928;-63
2022/11/15 11:00:20;;;;;;;;;;;11.60;99.90;;;;;;5090550;28;19924;-62
2022/11/15 11:02:56;;;;;;;;;;;11.70;99.90;;;;;;5091963;28;20004;-63
2022/11/15 11:05:27;;;;;;;;;;;11.70;99.90;;;;;;5092864;28;19924;-63
2022/11/15 11:08:01;;;;;;;;;;;11.70;99.90;;;;;;5107492;28;20392;-63
2022/11/15 11:10:27;;;;;;;;;;;11.70;99.90;;;;;;5082436;28;19934;-66
2022/11/15 11:12:52;;;;;;;;;;;11.80;99.90;;;;;;5100976;28;20015;-63
2022/11/15 11:15:18;;;;;;;;;;;11.70;99.90;;;;;;5090348;28;20098;-65
2022/11/15 11:17:53;;;;;;;;;;;11.70;99.90;;;;;;5090974;28;20484;-63
2022/11/15 11:20:29;;;;;;;;;;;11.70;99.90;;;;;;5089923;28;19971;-63
2022/11/15 11:23:02;;;;;;;;;;;11.70;99.90;;;;;;5074452;28;19924;-62
2022/11/15 11:25:48;;;;;;;;;;;11.60;99.90;;;;;;5090059;28;19924;-62
2022/11/15 11:28:26;;;;;;;;;;;11.70;99.90;;;;;;5091300;28;19978;-62
2022/11/15 11:30:52;;;;;;;;;;;11.70;99.90;;;;;;5074164;28;20368;-63
2022/11/15 11:33:20;;;;;;;;;;;11.80;99.90;;;;;;5089537;28;19924;-66
2022/11/15 11:36:01;;;;;;;;;;;11.80;99.90;;;;;;5092232;28;19935;-62
2022/11/15 11:38:45;;;;;;;;;;;11.90;99.90;;;;;;5092588;28;19982;-63
2022/11/15 11:41:20;;;;;;;;;;;11.90;99.90;;;;;;5091584;28;19989;-62
2022/11/15 11:44:09;;;;;;;;;;;11.90;99.90;;;;;;5091753;28;19935;-63
2022/11/15 11:46:34;;;;;;;;;;;11.90;99.90;;;;;;5057273;28;19980;-63
2022/11/15 11:49:00;;;;;;;;;;;12.00;99.90;;;;;;5074239;28;20007;-63
2022/11/15 11:51:36;;;;;;;;;;;12.00;99.90;;;;;;5092015;28;19928;-64
2022/11/15 11:54:11;;;;;;;;;;;12.00;99.90;;;;;;5056982;28;19939;-62
2022/11/15 11:56:38;;;;;;;;;;;12.10;99.90;;;;;;5100918;28;19940;-63
2022/11/15 11:59:15;;;;;;;;;;;12.20;99.90;;;;;;5105947;28;20076;-68
2022/11/15 12:01:42;;;;;;;;;;;12.20;99.90;;;;;;5090949;28;20019;-63
2022/11/15 12:04:17;;;;;;;;;;;12.20;99.90;;;;;;5072830;28;19924;-62
2022/11/15 12:06:48;;;;;;;;;;;12.20;99.90;;;;;;5095565;28;20337;-62
2022/11/15 12:09:20;;;;;;;;;;;12.20;99.90;;;;;;5072556;28;19985;-62
2022/11/15 12:11:51;;;;;;;;;;;12.20;99.90;;;;;;5089943;28;20440;-62
2022/11/15 12:14:35;;;;;;;;;;;12.10;99.90;;;;;;5090509;28;19935;-62
2022/11/15 12:17:01;;;;;;;;;;;12.20;99.90;;;;;;5090060;28;19982;-63
2022/11/15 12:19:28;;;;;;;;;;;12.10;99.90;;;;;;5090401;28;20385;-62
2022/11/15 12:21:59;;;;;;;;;;;12.20;99.90;;;;;;5089989;28;20340;-62
2022/11/15 12:24:26;;;;;;;;;;;12.10;99.90;;;;;;5089973;28;19924;-62
2022/11/15 12:26:55;;;;;;;;;;;12.10;99.90;;;;;;5097858;28;19931;-64
2022/11/15 12:29:25;;;;;;;;;;;12.10;99.90;;;;;;5090872;28;19932;-62
2022/11/15 12:31:52;;;;;;;;;;;12.10;99.90;;;;;;5091313;28;19928;-64
2022/11/15 12:34:21;;;;;;;;;;;12.00;99.90;;;;;;5091102;28;19923;-63
2022/11/15 12:36:47;;;;;;;;;;;12.10;99.90;;;;;;5090668;28;19940;-62
2022/11/15 12:39:13;;;;;;;;;;;12.10;99.90;;;;;;5071361;28;19985;-63
2022/11/15 12:41:40;;;;;;;;;;;12.10;99.90;;;;;;5066761;28;21145;-62
2022/11/15 12:44:13;;;;;;;;;;;12.10;99.90;;;;;;5090322;28;20019;-63
2022/11/15 12:46:39;;;;;;;;;;;12.10;99.90;;;;;;5090086;28;19951;-62
2022/11/15 12:49:23;;;;;;;;;;;12.10;99.90;;;;;;5090579;28;19924;-62
2022/11/15 12:51:48;;;;;;;;;;;12.10;99.90;;;;;;5067093;28;19977;-63
2022/11/15 12:54:23;;;;;;;;;;;12.10;99.90;;;;;;5089428;28;19928;-62
2022/11/15 12:57:01;;;;;;;;;;;12.10;99.90;;;;;;5086704;28;20440;-66
2022/11/15 12:59:45;;;;;;;;;;;12.00;99.90;;;;;;5087678;28;19932;-62
2022/11/15 13:02:27;;;;;;;;;;;12.10;99.90;;;;;;5080924;28;19928;-62
2022/11/15 13:04:55;;;;;;;;;;;12.10;99.90;;;;;;5090699;28;19924;-62
2022/11/15 13:07:39;;;;;;;;;;;12.20;99.90;;;;;;5090519;28;19924;-63
2022/11/15 13:10:13;;;;;;;;;;;12.10;99.90;;;;;;5091370;28;20358;-63
2022/11/15 13:12:45;;;;;;;;;;;12.10;99.90;;;;;;5072880;28;20042;-62
2022/11/15 13:15:14;;;;;;;;;;;12.20;99.90;;;;;;5073417;28;20018;-62
2022/11/15 13:17:42;;;;;;;;;;;12.20;99.90;;;;;;5090404;28;19924;-65
2022/11/15 13:20:07;;;;;;;;;;;12.30;99.90;;;;;;5088623;28;19924;-63
2022/11/15 13:22:51;;;;;;;;;;;12.30;99.90;;;;;;5089343;28;20407;-63
2022/11/15 13:25:35;;;;;;;;;;;12.30;99.90;;;;;;5088682;28;19935;-67
2022/11/15 13:28:01;;;;;;;;;;;12.40;99.90;;;;;;5072932;28;20017;-63
2022/11/15 13:30:29;;;;;;;;;;;12.40;99.90;;;;;;5091153;28;20296;-63
2022/11/15 13:32:55;;;;;;;;;;;12.40;99.90;;;;;;5090245;28;19925;-62
2022/11/15 13:35:24;;;;;;;;;;;12.40;99.90;;;;;;5090285;28;20029;-64
2022/11/15 13:37:51;;;;;;;;;;;12.40;99.90;;;;;;5090811;28;19924;-63
2022/11/15 13:40:22;;;;;;;;;;;12.30;99.90;;;;;;5097474;28;20393;-68
2022/11/15 13:42:47;;;;;;;;;;;12.30;99.90;;;;;;5086097;28;19928;-63
2022/11/15 13:45:14;;;;;;;;;;;12.20;99.90;;;;;;5090287;28;19931;-63
2022/11/15 13:47:40;;;;;;;;;;;12.20;99.90;;;;;;5089742;28;20017;-62
2022/11/15 13:50:06;;;;;;;;;;;12.20;99.90;;;;;;5091216;28;20016;-63
2022/11/15 13:52:34;;;;;;;;;;;12.10;99.90;;;;;;5071718;28;19928;-65
2022/11/15 13:55:00;;;;;;;;;;;12.10;99.90;;;;;;5089720;28;19966;-62
2022/11/15 13:57:31;;;;;;;;;;;12.00;99.90;;;;;;5091590;28;19928;-64
2022/11/15 14:00:04;;;;;;;;;;;12.00;99.90;;;;;;5089815;28;20992;-63
2022/11/15 14:02:32;;;;;;;;;;;12.00;99.90;;;;;;5092326;28;19935;-64
2022/11/15 14:04:59;;;;;;;;;;;12.00;99.90;;;;;;5072182;28;20020;-65
2022/11/15 14:07:27;;;;;;;;;;;11.90;99.90;;;;;;5088551;28;19928;-64
2022/11/15 14:09:53;;;;;;;;;;;12.00;99.90;;;;;;5093969;28;19975;-64
2022/11/15 14:12:26;;;;;;;;;;;11.90;99.90;;;;;;5071993;28;19971;-62
2022/11/15 14:14:52;;;;;;;;;;;11.90;99.90;;;;;;5055239;28;19971;-64
2022/11/15 14:17:20;;;;;;;;;;;11.90;99.90;;;;;;5071996;28;20012;-63
2022/11/15 14:19:45;;;;;;;;;;;11.90;99.90;;;;;;5089768;28;20204;-64
2022/11/15 14:22:13;;;;;;;;;;;11.90;99.90;;;;;;5090785;28;19972;-62
2022/11/15 14:24:39;;;;;;;;;;;11.80;99.90;;;;;;5071560;28;19928;-63
2022/11/15 14:27:22;;;;;;;;;;;11.80;99.90;;;;;;5087292;28;19963;-62
2022/11/15 14:29:48;;;;;;;;;;;11.80;99.90;;;;;;5088668;28;19996;-62
2022/11/15 14:32:18;;;;;;;;;;;11.80;99.90;;;;;;5074833;28;19932;-63
2022/11/15 14:34:44;;;;;;;;;;;11.70;99.90;;;;;;5054937;28;19931;-62
2022/11/15 14:37:19;;;;;;;;;;;11.70;99.90;;;;;;5087449;28;19925;-62
2022/11/15 14:39:45;;;;;;;;;;;11.70;99.90;;;;;;5079521;28;19935;-64
2022/11/15 14:42:10;;;;;;;;;;;11.70;99.90;;;;;;5082338;28;19924;-64
2022/11/15 14:44:36;;;;;;;;;;;11.70;99.90;;;;;;5068742;28;20424;-64